createdAt,value
2023-05-24T00:01:31.831Z,6.72
2023-05-24T00:04:01.429Z,6.43
2023-05-24T00:06:36.168Z,6.85
2023-05-24T00:09:06.676Z,5.63
2023-05-24T00:11:34.523Z,6.18
2023-05-24T00:14:10.720Z,6.00
2023-05-24T00:16:41.125Z,6.70
2023-05-24T00:19:11.673Z,6.50
2023-05-24T00:21:39.717Z,7.47
2023-05-24T00:24:08.080Z,7.03
2023-05-24T00:26:39.840Z,7.93
2023-05-24T00:29:12.045Z,7.85
2023-05-24T00:31:44.931Z,7.47
2023-05-24T00:34:14.882Z,7.70
2023-05-24T00:36:42.834Z,7.82
2023-05-24T00:39:12.540Z,6.95
2023-05-24T00:41:41.162Z,7.70
2023-05-24T00:44:20.554Z,7.90
2023-05-24T00:46:50.728Z,8.27
2023-05-24T00:49:27.102Z,7.95
2023-05-24T00:52:02.890Z,7.03
2023-05-24T00:54:31.588Z,6.97
2023-05-24T00:57:09.907Z,8.38
2023-05-24T00:59:38.149Z,7.07
2023-05-24T01:02:08.948Z,8.07
2023-05-24T01:04:46.045Z,8.30
2023-05-24T01:07:30.478Z,8.95
2023-05-24T01:10:47.902Z,8.75
2023-05-24T01:14:22.947Z,8.95
2023-05-24T01:17:42.607Z,9.07
2023-05-24T01:20:37.247Z,8.45
2023-05-24T01:23:52.027Z,7.75
2023-05-24T01:27:03.465Z,7.72
2023-05-24T01:29:38.827Z,8.07
2023-05-24T01:32:10.861Z,8.70
2023-05-24T01:34:39.737Z,8.57
2023-05-24T01:37:10.042Z,8.43
2023-05-24T01:39:38.655Z,8.43
2023-05-24T01:42:40.476Z,8.50
2023-05-24T01:46:05.979Z,8.30
2023-05-24T01:49:09.773Z,7.93
2023-05-24T01:51:55.652Z,8.95
2023-05-24T01:54:40.831Z,9.23
2023-05-24T01:57:11.075Z,9.75
2023-05-24T01:59:46.839Z,9.13
2023-05-24T02:02:15.931Z,9.10
2023-05-24T02:04:46.942Z,9.02
2023-05-24T02:07:32.829Z,9.25
2023-05-24T02:10:15.552Z,8.25
2023-05-24T02:12:43.189Z,9.60
2023-05-24T02:15:17.732Z,8.73
2023-05-24T02:17:49.323Z,9.95
2023-05-24T02:20:18.141Z,9.27
2023-05-24T02:22:46.841Z,8.93
2023-05-24T02:25:18.174Z,9.52
2023-05-24T02:27:48.159Z,10.07
2023-05-24T02:30:19.693Z,8.95
2023-05-24T02:32:50.336Z,8.75
2023-05-24T02:35:21.270Z,8.45
2023-05-24T02:37:57.374Z,8.32
2023-05-24T02:40:27.854Z,9.45
2023-05-24T02:42:57.812Z,10.45
2023-05-24T02:45:27.193Z,9.63
2023-05-24T02:48:04.571Z,9.60
2023-05-24T02:50:32.962Z,8.60
2023-05-24T02:53:08.917Z,8.98
2023-05-24T02:58:19.459Z,9.40
2023-05-24T03:00:55.601Z,9.52
2023-05-24T03:03:25.275Z,9.73
2023-05-24T03:05:56.068Z,9.80
2023-05-24T03:08:23.591Z,9.02
2023-05-24T03:10:52.396Z,8.60
2023-05-24T03:13:20.676Z,8.95
2023-05-24T03:15:51.732Z,8.93
2023-05-24T03:18:21.434Z,9.40
2023-05-24T03:20:52.813Z,8.50
2023-05-24T03:23:22.522Z,8.70
2023-05-24T03:25:56.109Z,9.32
2023-05-24T03:28:32.943Z,8.65
2023-05-24T03:31:02.620Z,9.18
2023-05-24T03:33:32.375Z,8.90
2023-05-24T03:36:09.911Z,9.68
2023-05-24T03:38:38.744Z,9.30
2023-05-24T03:41:14.873Z,9.18
2023-05-24T03:43:43.574Z,9.70
2023-05-24T03:46:18.135Z,9.38
2023-05-24T03:48:49.645Z,9.75
2023-05-24T03:51:19.404Z,10.07
2023-05-24T03:53:49.810Z,9.60
2023-05-24T03:56:21.164Z,10.07
2023-05-24T03:58:48.598Z,10.45
2023-05-24T04:01:32.178Z,10.65
2023-05-24T04:04:07.336Z,11.63
2023-05-24T04:06:37.815Z,10.07
2023-05-24T04:09:09.857Z,9.38
2023-05-24T04:11:46.877Z,11.93
2023-05-24T04:14:17.846Z,10.50
2023-05-24T04:16:48.211Z,12.23
2023-05-24T04:19:18.760Z,10.82
2023-05-24T04:21:49.760Z,11.80
2023-05-24T04:24:22.603Z,12.30
2023-05-24T04:26:54.276Z,12.30
2023-05-24T04:29:26.961Z,12.20
2023-05-24T04:31:57.065Z,12.02
2023-05-24T04:34:30.788Z,12.68
2023-05-24T04:36:58.006Z,11.98
2023-05-24T04:39:26.605Z,12.38
2023-05-24T04:41:57.135Z,13.50
2023-05-24T04:44:27.414Z,12.77
2023-05-24T04:47:07.847Z,13.90
2023-05-24T04:49:39.897Z,15.00
2023-05-24T04:52:17.172Z,14.82
2023-05-24T04:54:48.190Z,12.68
2023-05-24T04:57:18.082Z,13.65
2023-05-24T04:59:47.836Z,14.40
2023-05-24T05:02:24.954Z,13.43
2023-05-24T05:04:56.788Z,13.32
2023-05-24T05:07:25.497Z,13.23
2023-05-24T05:09:58.003Z,11.77
2023-05-24T05:12:28.223Z,12.95
2023-05-24T05:14:55.613Z,11.93
2023-05-24T05:17:24.851Z,12.75
2023-05-24T05:19:58.925Z,11.40
2023-05-24T05:22:32.954Z,12.02
2023-05-24T05:25:03.338Z,13.38
2023-05-24T05:27:40.869Z,13.00
2023-05-24T05:30:16.371Z,14.27
2023-05-24T05:32:47.766Z,13.38
2023-05-24T05:35:19.236Z,12.38
2023-05-24T05:37:58.436Z,13.18
2023-05-24T05:40:36.975Z,12.90
2023-05-24T05:43:06.598Z,13.10
2023-05-24T05:45:36.149Z,12.38
2023-05-24T05:48:07.575Z,12.70
2023-05-24T05:50:36.609Z,13.40
2023-05-24T05:53:09.098Z,11.05
2023-05-24T05:55:37.478Z,11.15
2023-05-24T05:58:08.550Z,11.77
2023-05-24T06:00:45.311Z,10.52
2023-05-24T06:03:27.103Z,9.38
2023-05-24T06:05:59.049Z,10.25
2023-05-24T06:08:32.979Z,11.00
2023-05-24T06:11:05.211Z,9.80
2023-05-24T06:13:33.954Z,9.48
2023-05-24T06:16:04.044Z,9.07
2023-05-24T06:18:43.199Z,8.70
2023-05-24T06:21:21.725Z,9.10
2023-05-24T06:23:52.721Z,9.15
2023-05-24T06:26:22.799Z,8.55
2023-05-24T06:28:52.312Z,8.07
2023-05-24T06:31:28.021Z,9.27
2023-05-24T06:34:05.873Z,8.57
2023-05-24T06:36:39.565Z,8.60
2023-05-24T06:39:13.512Z,9.02
2023-05-24T06:41:45.304Z,8.48
2023-05-24T06:44:12.842Z,9.10
2023-05-24T06:46:43.053Z,7.90
2023-05-24T06:49:22.185Z,8.20
2023-05-24T06:51:50.965Z,7.15
2023-05-24T06:54:27.618Z,7.90
2023-05-24T06:56:56.287Z,7.90
2023-05-24T06:59:26.338Z,7.38
2023-05-24T07:02:02.724Z,8.05
2023-05-24T07:04:36.614Z,7.80
2023-05-24T07:07:14.831Z,8.20
2023-05-24T07:09:46.954Z,7.63
2023-05-24T07:12:15.022Z,7.70
2023-05-24T07:14:53.611Z,8.05
2023-05-24T07:17:23.618Z,7.60
2023-05-24T07:19:55.249Z,7.93
2023-05-24T07:22:31.006Z,7.35
2023-05-24T07:25:00.924Z,7.30
2023-05-24T07:27:29.952Z,7.93
2023-05-24T07:30:16.364Z,7.78
2023-05-24T07:32:53.052Z,8.20
2023-05-24T07:35:28.856Z,7.93
2023-05-24T07:37:59.420Z,8.15
2023-05-24T07:40:35.176Z,7.88
2023-05-24T07:43:11.567Z,7.25
2023-05-24T07:45:46.606Z,8.40
2023-05-24T07:48:17.633Z,8.25
2023-05-24T07:50:49.957Z,8.70
2023-05-24T07:53:27.732Z,8.70
2023-05-24T07:56:05.932Z,8.00
2023-05-24T07:58:38.833Z,8.15
2023-05-24T08:01:10.444Z,7.60
2023-05-24T08:03:38.337Z,8.13
2023-05-24T08:06:19.802Z,7.97
2023-05-24T08:08:52.076Z,7.82
2023-05-24T08:11:24.448Z,7.25
2023-05-24T08:13:57.365Z,8.30
2023-05-24T08:16:27.147Z,7.68
2023-05-24T08:18:56.142Z,9.57
2023-05-24T08:21:26.905Z,9.07
2023-05-24T08:23:57.569Z,8.75
2023-05-24T08:26:27.353Z,9.50
2023-05-24T08:28:56.967Z,8.75
2023-05-24T08:31:31.081Z,9.50
2023-05-24T08:34:04.053Z,10.57
2023-05-24T08:36:34.927Z,9.90
2023-05-24T08:39:05.309Z,8.95
2023-05-24T08:41:40.225Z,8.82
2023-05-24T08:44:15.969Z,9.20
2023-05-24T08:46:52.793Z,9.45
2023-05-24T08:49:22.416Z,9.05
2023-05-24T08:51:52.494Z,9.63
2023-05-24T08:54:27.508Z,8.63
2023-05-24T08:57:00.158Z,9.07
2023-05-24T08:59:27.402Z,8.82
2023-05-24T09:02:19.373Z,8.23
2023-05-24T09:04:55.358Z,8.90
2023-05-24T09:07:26.336Z,8.38
2023-05-24T09:10:09.276Z,8.45
2023-05-24T09:12:41.592Z,8.13
2023-05-24T09:15:15.961Z,8.82
2023-05-24T09:17:43.829Z,8.90
2023-05-24T09:20:16.870Z,9.20
2023-05-24T09:22:54.878Z,9.52
2023-05-24T09:25:26.055Z,9.48
2023-05-24T09:27:59.589Z,9.00
2023-05-24T09:30:34.024Z,8.85
2023-05-24T09:33:06.334Z,9.70
2023-05-24T09:35:45.932Z,8.80
2023-05-24T09:38:22.118Z,9.07
2023-05-24T09:41:14.208Z,8.35
2023-05-24T09:43:51.293Z,8.23
2023-05-24T09:46:22.473Z,7.25
2023-05-24T09:49:09.343Z,6.90
2023-05-24T09:51:41.180Z,7.40
2023-05-24T09:54:18.404Z,6.47
2023-05-24T09:56:48.709Z,7.10
2023-05-24T09:59:20.807Z,7.90
2023-05-24T10:01:54.544Z,7.68
2023-05-24T10:04:34.596Z,7.60
2023-05-24T10:07:10.378Z,7.90
2023-05-24T10:09:40.773Z,7.45
2023-05-24T10:12:34.710Z,7.90
2023-05-24T10:15:06.398Z,7.28
2023-05-24T10:17:33.718Z,7.60
2023-05-24T10:20:01.386Z,7.32
2023-05-24T10:22:32.255Z,7.47
2023-05-24T10:25:04.568Z,7.72
2023-05-24T10:27:41.260Z,7.63
2023-05-24T10:30:33.514Z,7.68
2023-05-24T10:33:05.214Z,8.80
2023-05-24T10:35:46.098Z,8.00
2023-05-24T10:38:16.866Z,8.38
2023-05-24T10:40:44.884Z,7.60
2023-05-24T10:43:14.170Z,9.05
2023-05-24T10:45:49.098Z,9.40
2023-05-24T10:48:30.868Z,8.40
2023-05-24T10:51:05.283Z,8.77
2023-05-24T10:53:42.679Z,9.18
2023-05-24T10:56:24.530Z,9.30
2023-05-24T10:59:08.426Z,9.02
2023-05-24T11:01:37.325Z,8.82
2023-05-24T11:04:19.498Z,8.75
2023-05-24T11:07:08.124Z,9.63
2023-05-24T11:09:37.027Z,8.85
2023-05-24T11:12:31.731Z,9.55
2023-05-24T11:15:04.232Z,9.40
2023-05-24T11:17:32.625Z,9.13
2023-05-24T11:20:06.147Z,9.55
2023-05-24T11:22:35.555Z,9.13
2023-05-24T11:25:14.246Z,9.30
2023-05-24T11:27:49.504Z,10.07
2023-05-24T11:30:20.695Z,9.73
2023-05-24T11:32:51.585Z,8.93
2023-05-24T11:35:31.372Z,9.18
2023-05-24T11:38:10.560Z,8.93
2023-05-24T11:40:49.151Z,8.80
2023-05-24T11:43:25.617Z,7.70
2023-05-24T11:45:57.379Z,9.23
2023-05-24T11:48:28.594Z,9.35
2023-05-24T11:50:58.478Z,9.10
2023-05-24T11:53:28.920Z,8.95
2023-05-24T11:55:59.387Z,8.35
2023-05-24T11:58:46.456Z,9.23
2023-05-24T12:01:30.288Z,9.27
2023-05-24T12:04:00.304Z,8.73
2023-05-24T12:06:45.530Z,9.23
2023-05-24T12:09:16.490Z,9.00
2023-05-24T12:11:52.315Z,9.43
2023-05-24T12:14:37.925Z,10.00
2023-05-24T12:17:07.361Z,9.13
2023-05-24T12:19:44.471Z,9.25
2023-05-24T12:22:20.676Z,9.70
2023-05-24T12:24:54.108Z,10.23
2023-05-24T12:27:34.824Z,9.65
2023-05-24T12:30:12.974Z,10.30
2023-05-24T12:32:41.444Z,9.75
2023-05-24T12:35:13.838Z,9.52
2023-05-24T12:37:44.818Z,9.13
2023-05-24T12:40:24.814Z,10.23
2023-05-24T12:43:01.287Z,9.93
2023-05-24T12:45:37.588Z,10.63
2023-05-24T12:48:06.593Z,10.18
2023-05-24T12:50:37.762Z,9.88
2023-05-24T12:53:07.124Z,9.23
2023-05-24T12:55:35.272Z,9.18
2023-05-24T12:58:09.067Z,9.88
2023-05-24T13:00:41.211Z,9.43
2023-05-24T13:03:10.366Z,8.95
2023-05-24T13:05:41.019Z,8.02
2023-05-24T13:08:12.678Z,7.20
2023-05-24T13:10:44.524Z,6.78
2023-05-24T13:13:13.579Z,5.65
2023-05-24T13:15:45.881Z,5.35
2023-05-24T13:18:14.686Z,5.72
2023-05-24T13:20:43.606Z,6.45
2023-05-24T13:23:14.566Z,6.43
2023-05-24T13:25:50.596Z,6.60
2023-05-24T13:28:19.372Z,6.78
2023-05-24T13:30:54.359Z,6.40
2023-05-24T13:33:25.399Z,5.95
2023-05-24T13:35:54.896Z,6.25
2023-05-24T13:38:25.450Z,6.65
2023-05-24T13:41:02.078Z,6.15
2023-05-24T13:43:31.430Z,7.63
2023-05-24T13:46:01.356Z,7.40
2023-05-24T13:48:28.619Z,7.38
2023-05-24T13:50:56.144Z,6.90
2023-05-24T13:53:33.628Z,7.80
2023-05-24T13:56:04.212Z,7.45
2023-05-24T13:58:34.960Z,8.00
2023-05-24T14:01:06.120Z,7.65
2023-05-24T14:03:35.898Z,8.68
2023-05-24T14:06:08.556Z,8.40
2023-05-24T14:08:48.269Z,7.72
2023-05-24T14:11:16.895Z,7.78
2023-05-24T14:16:26.907Z,8.55
2023-05-24T14:18:56.707Z,8.30
2023-05-24T14:21:31.073Z,8.27
2023-05-24T14:24:07.304Z,8.98
2023-05-24T14:26:36.975Z,8.38
2023-05-24T14:29:09.274Z,8.57
2023-05-24T14:31:43.736Z,7.97
2023-05-24T14:34:18.517Z,7.45
2023-05-24T14:36:50.549Z,8.05
2023-05-24T14:39:30.039Z,8.65
2023-05-24T14:41:58.408Z,8.23
2023-05-24T14:44:29.492Z,8.35
2023-05-24T14:46:58.438Z,8.10
2023-05-24T14:49:27.109Z,8.48
2023-05-24T14:52:00.867Z,8.32
2023-05-24T14:54:33.261Z,7.78
2023-05-24T14:57:04.005Z,8.05
2023-05-24T14:59:31.993Z,8.00
2023-05-24T15:02:03.321Z,8.07
2023-05-24T15:04:30.501Z,8.07
2023-05-24T15:07:01.746Z,7.65
2023-05-24T15:09:45.204Z,7.80
2023-05-24T15:12:14.733Z,8.23
2023-05-24T15:14:42.984Z,8.25
2023-05-24T15:17:11.916Z,7.95
2023-05-24T15:19:42.482Z,7.60
2023-05-24T15:22:11.973Z,7.43
2023-05-24T15:24:41.361Z,7.55
2023-05-24T15:27:10.587Z,7.60
2023-05-24T15:29:39.270Z,7.88
2023-05-24T15:32:16.686Z,7.70
2023-05-24T15:34:45.606Z,7.55
2023-05-24T15:37:14.219Z,8.10
2023-05-24T15:39:42.582Z,8.43
2023-05-24T15:42:11.423Z,8.88
2023-05-24T15:44:42.979Z,8.65
2023-05-24T15:47:15.677Z,8.27
2023-05-24T15:49:47.777Z,8.38
2023-05-24T15:52:18.508Z,8.45
2023-05-24T15:54:50.770Z,8.50
2023-05-24T15:57:19.981Z,7.70
2023-05-24T15:59:56.075Z,8.50
2023-05-24T16:02:27.708Z,7.57
2023-05-24T16:04:57.862Z,8.15
2023-05-24T16:07:26.481Z,7.80
2023-05-24T16:09:56.222Z,8.18
2023-05-24T16:12:24.066Z,8.77
2023-05-24T16:14:56.215Z,8.60
2023-05-24T16:17:25.852Z,7.55
2023-05-24T16:19:58.734Z,7.60
2023-05-24T16:22:28.861Z,7.40
2023-05-24T16:24:56.265Z,7.53
2023-05-24T16:27:25.129Z,8.23
2023-05-24T16:29:54.948Z,7.22
2023-05-24T16:32:23.741Z,6.88
2023-05-24T16:34:57.069Z,6.72
2023-05-24T16:37:35.373Z,6.32
2023-05-24T16:40:08.875Z,6.40
2023-05-24T16:42:37.388Z,6.60
2023-05-24T16:45:10.160Z,6.32
2023-05-24T16:47:41.726Z,5.53
2023-05-24T16:50:15.583Z,5.75
2023-05-24T16:52:47.756Z,5.93
2023-05-24T16:55:26.731Z,5.35
2023-05-24T16:57:55.304Z,5.10
2023-05-24T17:00:26.927Z,5.57
2023-05-24T17:03:01.537Z,5.22
2023-05-24T17:05:38.177Z,5.93
2023-05-24T17:08:07.361Z,6.05
2023-05-24T17:10:36.674Z,6.45
2023-05-24T17:13:05.588Z,6.00
2023-05-24T17:15:35.067Z,6.68
2023-05-24T17:18:03.547Z,7.85
2023-05-24T17:20:33.699Z,7.22
2023-05-24T17:23:10.819Z,6.80
2023-05-24T17:25:39.618Z,7.32
2023-05-24T17:28:08.392Z,7.05
2023-05-24T17:30:38.417Z,6.03
2023-05-24T17:33:07.274Z,6.53
2023-05-24T17:35:37.791Z,5.60
2023-05-24T17:38:06.205Z,6.88
2023-05-24T17:40:36.857Z,6.32
2023-05-24T17:43:13.311Z,6.28
2023-05-24T17:45:43.119Z,6.15
2023-05-24T17:48:19.984Z,5.30
2023-05-24T17:50:50.539Z,5.95
2023-05-24T17:53:31.919Z,5.13
2023-05-24T17:56:05.246Z,5.30
2023-05-24T17:58:38.892Z,6.43
2023-05-24T18:01:18.673Z,5.32
2023-05-24T18:03:49.116Z,5.22
2023-05-24T18:06:18.763Z,4.95
2023-05-24T18:11:37.050Z,4.45
2023-05-24T18:14:08.583Z,4.38
2023-05-24T18:16:43.826Z,4.55
2023-05-24T18:19:14.892Z,5.05
2023-05-24T18:21:44.716Z,7.15
2023-05-24T18:24:13.157Z,5.55
2023-05-24T18:26:41.574Z,6.68
2023-05-24T18:29:11.811Z,6.30
2023-05-24T18:31:41.480Z,6.95
2023-05-24T18:34:10.667Z,6.72
2023-05-24T18:36:41.725Z,7.28
2023-05-24T18:39:16.713Z,6.65
2023-05-24T18:41:45.063Z,7.10
2023-05-24T18:44:15.307Z,7.03
2023-05-24T18:46:43.902Z,7.53
2023-05-24T18:49:13.351Z,7.88
2023-05-24T18:51:42.527Z,6.70
2023-05-24T18:54:09.930Z,7.28
2023-05-24T18:56:37.338Z,6.57
2023-05-24T18:59:14.590Z,6.00
2023-05-24T19:01:43.786Z,5.50
2023-05-24T19:04:11.269Z,6.50
2023-05-24T19:06:40.854Z,6.38
2023-05-24T19:09:08.030Z,6.43
2023-05-24T19:11:47.538Z,6.25
2023-05-24T19:14:19.550Z,6.45
2023-05-24T19:16:49.509Z,6.35
2023-05-24T19:19:18.396Z,5.78
2023-05-24T19:21:49.563Z,5.80
2023-05-24T19:24:19.180Z,6.32
2023-05-24T19:26:50.317Z,6.03
2023-05-24T19:29:19.580Z,5.90
2023-05-24T19:31:56.493Z,6.35
2023-05-24T19:34:25.409Z,5.55
2023-05-24T19:37:01.582Z,5.50
2023-05-24T19:39:31.347Z,5.22
2023-05-24T19:41:59.816Z,4.90
2023-05-24T19:44:32.789Z,5.28
2023-05-24T19:47:01.777Z,5.38
2023-05-24T19:49:32.293Z,5.45
2023-05-24T19:52:02.190Z,5.25
2023-05-24T19:54:33.553Z,5.15
2023-05-24T19:57:06.319Z,5.68
2023-05-24T19:59:36.229Z,5.65
2023-05-24T20:02:08.430Z,5.47
2023-05-24T20:04:42.673Z,5.70
2023-05-24T20:07:11.940Z,6.45
2023-05-24T20:09:41.947Z,5.65
2023-05-24T20:12:12.830Z,6.13
2023-05-24T20:14:43.261Z,5.32
2023-05-24T20:17:20.826Z,6.07
2023-05-24T20:19:50.302Z,5.90
2023-05-24T20:22:19.396Z,5.10
2023-05-24T20:24:46.647Z,5.65
2023-05-24T20:27:16.691Z,5.55
2023-05-24T20:29:45.219Z,5.70
2023-05-24T20:32:14.857Z,6.40
2023-05-24T20:34:43.497Z,6.30
2023-05-24T20:37:14.650Z,5.95
2023-05-24T20:39:44.811Z,6.05
2023-05-24T20:42:13.535Z,5.82
2023-05-24T20:44:41.274Z,6.50
2023-05-24T20:47:10.863Z,6.03
2023-05-24T20:49:40.981Z,6.10
2023-05-24T20:52:11.897Z,5.85
2023-05-24T20:54:39.333Z,5.25
2023-05-24T20:57:08.204Z,5.40
2023-05-24T20:59:36.946Z,5.25
2023-05-24T21:02:09.311Z,6.00
2023-05-24T21:04:38.799Z,5.40
2023-05-24T21:07:12.840Z,6.55
2023-05-24T21:09:42.732Z,5.57
2023-05-24T21:12:11.740Z,5.90
2023-05-24T21:14:41.783Z,6.07
2023-05-24T21:17:10.290Z,5.88
2023-05-24T21:19:37.807Z,5.35
2023-05-24T21:22:06.407Z,5.60
2023-05-24T21:24:35.230Z,6.00
2023-05-24T21:27:06.202Z,5.43
2023-05-24T21:29:42.371Z,6.47
2023-05-24T21:32:11.812Z,6.43
2023-05-24T21:34:42.010Z,6.35
2023-05-24T21:37:15.683Z,6.20
2023-05-24T21:39:52.674Z,5.03
2023-05-24T21:42:23.294Z,5.45
2023-05-24T21:44:54.233Z,5.82
2023-05-24T21:47:22.712Z,5.88
2023-05-24T21:49:54.856Z,5.97
2023-05-24T21:52:25.893Z,6.18
2023-05-24T21:54:54.517Z,6.15
2023-05-24T21:57:26.194Z,6.10
2023-05-24T21:59:57.194Z,6.40
2023-05-24T22:02:31.048Z,5.95
2023-05-24T22:04:58.510Z,5.78
2023-05-24T22:07:29.749Z,6.47
2023-05-24T22:09:59.098Z,6.57
2023-05-24T22:12:27.089Z,6.05
2023-05-24T22:15:02.439Z,7.30
2023-05-24T22:17:33.600Z,6.22
2023-05-24T22:20:07.604Z,6.10
2023-05-24T22:22:40.329Z,6.57
2023-05-24T22:25:10.903Z,7.10
2023-05-24T22:27:41.483Z,6.70
2023-05-24T22:30:13.578Z,6.72
2023-05-24T22:32:46.192Z,6.20
2023-05-24T22:35:14.888Z,6.45
2023-05-24T22:37:42.514Z,6.35
2023-05-24T22:40:13.040Z,5.95
2023-05-24T22:42:43.516Z,4.53
2023-05-24T22:45:17.506Z,5.28
2023-05-24T22:47:49.924Z,5.45
2023-05-24T22:50:19.974Z,5.30
2023-05-24T22:52:49.567Z,5.60
2023-05-24T22:55:22.074Z,4.93
2023-05-24T22:57:51.374Z,5.57
2023-05-24T23:00:20.886Z,4.93
2023-05-24T23:02:57.745Z,5.47
2023-05-24T23:05:26.879Z,5.38
2023-05-24T23:07:57.585Z,6.57
2023-05-24T23:10:28.536Z,5.60
2023-05-24T23:12:58.864Z,5.82
2023-05-24T23:15:29.691Z,5.80
2023-05-24T23:18:00.120Z,5.40
2023-05-24T23:20:30.092Z,5.53
2023-05-24T23:23:09.497Z,5.32
2023-05-24T23:25:45.815Z,6.28
2023-05-24T23:28:14.674Z,5.53
2023-05-24T23:30:45.155Z,6.70
2023-05-24T23:33:14.667Z,6.97
2023-05-24T23:35:44.412Z,7.35
2023-05-24T23:38:14.921Z,6.80
2023-05-24T23:40:46.433Z,7.22
2023-05-24T23:43:15.206Z,6.90
2023-05-24T23:45:42.949Z,6.53
2023-05-24T23:48:12.241Z,6.68
2023-05-24T23:50:53.143Z,7.07
2023-05-24T23:53:22.952Z,6.80
2023-05-24T23:55:59.486Z,6.80
2023-05-24T23:58:30.334Z,5.95
